This is the latest recevied weather packets stored in our database for station/object N4QB-13. If no packets are shown the sender has not sent any weather packets the latest 10 day(s).
| Time | Temp. | Humidity | Pressure | Rain* | Wind** | Luminosity | Snow |
|---|---|---|---|---|---|---|---|
| 1777672767 | 19.44° C | 80% | 1009 hPa | 3.05 mm | - | 14 W/m² | - |
| 1777672464 | 20° C | 79% | 1009.1 hPa | 1.27 mm | - | 12 W/m² | - |
| 1777672160 | 20.56° C | 75% | 1008.9 hPa | 0 mm | - | 13 W/m² | - |
| 1777671855 | 20.56° C | 75% | 1009.1 hPa | 0 mm | - | 14 W/m² | - |
| 1777671550 | 21.11° C | 73% | 1009 hPa | 0 mm | - | 19 W/m² | - |
| 1777671248 | 21.67° C | 71% | 1009.4 hPa | 0 mm | - | 27 W/m² | - |
| 1777670943 | 22.22° C | 70% | 1009.2 hPa | 0 mm | - | 28 W/m² | - |
| 1777670640 | 22.22° C | 70% | 1009.5 hPa | 0 mm | - | 30 W/m² | - |
| 1777670337 | 22.22° C | 69% | 1009.1 hPa | 0 mm | - | 32 W/m² | - |
| 1777670034 | 22.78° C | 69% | 1008.8 hPa | 0 mm | - | 27 W/m² | - |
| 1777669732 | 22.78° C | 68% | 1008.8 hPa | 0 mm | - | 57 W/m² | - |
| 1777669429 | 23.33° C | 68% | 1009 hPa | 0 mm | - | 76 W/m² | - |
| 1777669125 | 23.33° C | 69% | 1009.1 hPa | 0 mm | - | 86 W/m² | - |
| 1777668822 | 23.33° C | 69% | 1009.1 hPa | 0 mm | - | 100 W/m² | - |
| 1777668518 | 23.33° C | 69% | 1009.1 hPa | 0 mm | - | 89 W/m² | - |
| 1777668215 | 23.33° C | 69% | 1009.2 hPa | 0 mm | - | 75 W/m² | - |
| 1777512481 | 26.11° C | 73% | 1011.1 hPa | 0 mm | - | 0 W/m² | - |
| 1777512177 | 26.11° C | 73% | 1011.1 hPa | 0 mm | - | 0 W/m² | - |
| 1777511875 | 26.11° C | 73% | 1011 hPa | 0 mm | - | 0 W/m² | - |
| 1777511573 | 26.11° C | 73% | 1010.8 hPa | 0 mm | - | 0 W/m² | - |
| 1777511270 | 26.11° C | 72% | 1010.7 hPa | 0 mm | - | 0 W/m² | - |
| 1777510965 | 26.11° C | 73% | 1010.5 hPa | 0 mm | - | 0 W/m² | - |
| 1777510663 | 26.11° C | 74% | 1010.4 hPa | 0 mm | - | 0 W/m² | - |
| 1777510358 | 25.56° C | 75% | 1010.3 hPa | 0 mm | - | 0 W/m² | - |
| 1777510055 | 25.56° C | 77% | 1010.4 hPa | 0 mm | - | 0 W/m² | - |
* Rain latest hour (hover to see other rain measurements)
** Current wind speed in m/s (hover to see current wind gust speed)